Time;durP1;ratioP1;P1;durP2;ratioP2;P2;SDS_P1;SDS_P2;PMS_P1;PMS_P2;Temp;Humidity;BMP_temperature;BMP_pressure;BME280_temperature;BME280_humidity;BME280_pressure;Samples;Min_cycle;Max_cycle;Signal;HPM_P1;HPM_P2
2022/12/14 00:01:53;;;;;;;18.60;11.90;;;;;;;7.52;64.17;99994.50;4996736;28;20070;-79
2022/12/14 00:04:23;;;;;;;18.27;11.32;;;;;;;7.51;64.18;99989.25;4996602;28;20069;-78
2022/12/14 00:06:51;;;;;;;18.00;11.10;;;;;;;7.50;64.36;99999.03;4997088;28;20049;-78
2022/12/14 00:09:19;;;;;;;19.05;11.43;;;;;;;7.50;64.19;100003.47;4978938;28;20084;-77
2022/12/14 00:11:47;;;;;;;18.05;11.70;;;;;;;7.49;64.29;99996.44;4996939;28;20156;-78
2022/12/14 00:14:15;;;;;;;18.48;12.23;;;;;;;7.49;64.25;99988.50;4996519;28;20046;-79
2022/12/14 00:16:43;;;;;;;19.45;11.77;;;;;;;7.46;64.09;99987.72;4996590;28;20050;-78
2022/12/14 00:19:12;;;;;;;18.00;11.02;;;;;;;7.44;64.05;99991.41;4995715;28;20073;-78
2022/12/14 00:21:41;;;;;;;20.45;12.20;;;;;;;7.45;64.23;99988.66;4996246;28;20046;-77
2022/12/14 00:24:11;;;;;;;18.17;11.18;;;;;;;7.45;64.25;99986.00;4995665;28;20042;-78
2022/12/14 00:26:39;;;;;;;18.65;11.48;;;;;;;7.43;64.34;99993.19;4995377;28;20076;-78
2022/12/14 00:29:07;;;;;;;18.40;11.00;;;;;;;7.43;64.16;99997.63;4996018;28;20046;-78
2022/12/14 00:31:35;;;;;;;19.38;12.40;;;;;;;7.41;64.17;99999.50;4996078;28;20078;-78
2022/12/14 00:34:04;;;;;;;21.63;12.57;;;;;;;7.42;64.19;100010.03;4996339;28;20134;-78
2022/12/14 00:36:32;;;;;;;18.77;11.80;;;;;;;7.41;64.19;100010.97;4995583;28;20046;-78
2022/12/14 00:39:01;;;;;;;21.00;12.23;;;;;;;7.41;64.16;100016.28;4996416;28;20070;-78
2022/12/14 00:41:29;;;;;;;17.63;11.05;;;;;;;7.41;64.06;100010.97;4995695;28;20081;-78
2022/12/14 00:43:58;;;;;;;21.10;12.40;;;;;;;7.37;64.14;100012.06;4995644;28;20046;-78
2022/12/14 00:46:26;;;;;;;19.10;11.73;;;;;;;7.39;64.12;100012.00;4996238;28;20113;-78
2022/12/14 00:48:54;;;;;;;18.85;11.73;;;;;;;7.36;64.13;100010.34;4996006;28;20400;-78
2022/12/14 00:51:22;;;;;;;17.42;11.25;;;;;;;7.35;64.04;100006.00;4995833;28;20074;-78
2022/12/14 00:53:50;;;;;;;19.00;11.90;;;;;;;7.35;63.98;100007.78;4995805;28;20133;-78
2022/12/14 00:56:20;;;;;;;20.55;12.05;;;;;;;7.33;63.84;100006.97;4987735;28;20042;-78
2022/12/14 00:58:51;;;;;;;19.55;11.77;;;;;;;7.32;63.89;100006.13;4995773;28;20050;-78
2022/12/14 01:01:21;;;;;;;19.75;11.48;;;;;;;7.32;63.82;100015.88;4995409;28;20034;-78
2022/12/14 01:03:49;;;;;;;18.45;11.95;;;;;;;7.31;63.85;100017.69;4995781;28;20100;-78
2022/12/14 01:06:19;;;;;;;20.08;12.00;;;;;;;7.29;63.86;100019.56;4995883;28;20093;-77
2022/12/14 01:08:48;;;;;;;15.60;10.85;;;;;;;7.29;63.75;100019.56;4979337;28;20073;-79
2022/12/14 01:11:17;;;;;;;18.92;11.57;;;;;;;7.28;63.85;100015.19;4978467;28;20432;-78
2022/12/14 01:13:46;;;;;;;18.60;11.38;;;;;;;7.28;63.94;100028.44;4995412;28;20042;-79
2022/12/14 01:16:22;;;;;;;16.20;11.15;;;;;;;7.27;64.08;100026.75;4996271;28;20042;-78
2022/12/14 01:18:50;;;;;;;18.70;11.60;;;;;;;7.26;64.07;100025.03;4996033;28;20046;-78
2022/12/14 01:21:21;;;;;;;20.00;11.65;;;;;;;7.25;64.11;100035.72;4995282;28;20513;-78
2022/12/14 01:23:52;;;;;;;17.58;11.52;;;;;;;7.22;64.00;100023.44;4978413;28;20058;-77
2022/12/14 01:26:22;;;;;;;18.23;11.20;;;;;;;7.26;64.01;100027.69;4996040;28;20043;-77
2022/12/14 01:28:55;;;;;;;18.05;11.18;;;;;;;7.26;64.00;100021.50;4995531;28;20539;-79
2022/12/14 01:31:25;;;;;;;17.80;11.10;;;;;;;7.25;64.11;100022.47;4995937;28;20051;-77
2022/12/14 01:33:54;;;;;;;16.45;10.48;;;;;;;7.24;64.01;100023.34;4995658;28;20055;-77
2022/12/14 01:36:24;;;;;;;19.50;12.32;;;;;;;7.23;63.82;100021.66;4996664;28;20046;-77
2022/12/14 01:38:54;;;;;;;18.30;11.48;;;;;;;7.22;63.67;100027.88;4999654;28;20050;-79
2022/12/14 01:41:25;;;;;;;18.67;11.82;;;;;;;7.21;63.91;100019.06;4991996;28;20042;-79
2022/12/14 01:43:57;;;;;;;18.58;11.32;;;;;;;7.20;63.77;100017.34;4982685;28;20073;-79
2022/12/14 01:46:30;;;;;;;19.35;11.63;;;;;;;7.20;63.60;100005.91;5000193;28;20046;-79
2022/12/14 01:49:02;;;;;;;19.50;11.68;;;;;;;7.18;63.61;100014.78;4999812;28;20045;-79
2022/12/14 01:51:32;;;;;;;17.90;11.40;;;;;;;7.18;63.63;100008.63;4999425;28;20547;-79
2022/12/14 01:54:02;;;;;;;19.02;11.48;;;;;;;7.17;63.70;100006.91;4999253;28;20193;-79
2022/12/14 01:56:32;;;;;;;17.38;11.23;;;;;;;7.17;63.80;100004.25;4999565;28;20481;-79
2022/12/14 01:59:06;;;;;;;19.35;11.68;;;;;;;7.15;63.75;99996.38;4999757;28;20079;-79
2022/12/14 02:01:37;;;;;;;21.58;11.95;;;;;;;7.16;63.73;99994.59;4999258;28;20061;-79
2022/12/14 02:04:06;;;;;;;18.13;11.30;;;;;;;7.15;63.66;99979.63;4981676;28;20559;-77
2022/12/14 02:06:37;;;;;;;18.67;10.35;;;;;;;7.12;63.71;99988.56;4999062;28;20100;-78
2022/12/14 02:09:09;;;;;;;17.25;11.35;;;;;;;7.12;63.78;99980.59;4999503;28;20122;-78
2022/12/14 02:11:49;;;;;;;18.50;11.70;;;;;;;7.13;63.74;99995.56;4998922;28;20046;-77
2022/12/14 02:14:19;;;;;;;20.83;11.93;;;;;;;7.12;63.70;99977.94;4999302;28;20046;-79
2022/12/14 02:16:50;;;;;;;18.92;11.45;;;;;;;7.13;63.56;99989.41;4998885;28;20054;-79
2022/12/14 02:19:18;;;;;;;17.63;11.20;;;;;;;7.12;63.58;99993.88;4981555;28;20070;-79
2022/12/14 02:22:06;;;;;;;17.25;10.73;;;;;;;7.13;63.53;99989.41;5000017;28;20046;-79
2022/12/14 02:25:00;;;;;;;17.95;11.23;;;;;;;7.14;63.59;99978.75;4999268;28;20404;-79
2022/12/14 02:27:49;;;;;;;19.58;11.23;;;;;;;7.16;63.63;99973.38;5000374;28;20057;-78
2022/12/14 02:30:20;;;;;;;17.38;10.95;;;;;;;7.15;63.52;99976.97;4999447;28;20051;-79
2022/12/14 02:33:10;;;;;;;18.27;11.23;;;;;;;7.10;63.54;99978.97;4999351;28;20058;-79
2022/12/14 02:35:44;;;;;;;19.50;11.30;;;;;;;7.11;63.51;99976.25;4999108;28;20038;-79
2022/12/14 02:38:27;;;;;;;18.98;11.60;;;;;;;7.05;63.18;99962.44;4999242;28;20046;-79
2022/12/14 02:41:06;;;;;;;19.25;10.57;;;;;;;7.06;63.37;99972.13;4999376;28;20433;-79
2022/12/14 02:43:44;;;;;;;17.90;11.23;;;;;;;7.02;63.70;99965.22;4999411;28;20054;-79
2022/12/14 02:46:22;;;;;;;19.85;10.98;;;;;;;7.01;63.66;99956.41;4999090;28;20047;-79
2022/12/14 02:48:58;;;;;;;19.75;11.20;;;;;;;6.99;63.75;99947.69;4980454;28;20093;-79
2022/12/14 02:51:38;;;;;;;18.58;11.55;;;;;;;7.00;63.76;99952.06;4981059;28;20383;-79
2022/12/14 02:54:13;;;;;;;17.15;10.50;;;;;;;7.02;63.79;99959.94;4997652;28;20046;-79
2022/12/14 02:56:48;;;;;;;17.50;11.05;;;;;;;7.00;63.63;99961.81;4998462;28;20417;-79
2022/12/14 02:59:18;;;;;;;18.83;10.82;;;;;;;7.00;63.57;99961.81;4997498;28;20102;-79
2022/12/14 03:01:51;;;;;;;18.40;10.70;;;;;;;6.94;63.67;99956.78;4997288;28;20126;-79
2022/12/14 03:04:19;;;;;;;19.27;10.80;;;;;;;6.99;63.65;99965.41;4996966;28;20137;-79
2022/12/14 03:06:56;;;;;;;16.23;10.73;;;;;;;6.94;63.54;99943.53;4997597;28;20468;-79
2022/12/14 03:09:28;;;;;;;18.65;11.02;;;;;;;6.98;63.90;99961.03;4996905;28;20441;-80
2022/12/14 03:12:01;;;;;;;20.25;11.57;;;;;;;6.97;63.73;99951.34;4979744;28;20129;-79
2022/12/14 03:14:34;;;;;;;19.92;12.05;;;;;;;6.96;63.72;99931.09;4997360;28;20046;-79
2022/12/14 03:17:10;;;;;;;21.77;12.30;;;;;;;7.00;63.69;99937.94;4997221;28;20050;-79
2022/12/14 03:19:50;;;;;;;19.88;11.50;;;;;;;7.01;63.65;99937.00;4996866;28;20042;-79
2022/12/14 03:22:23;;;;;;;19.23;11.32;;;;;;;7.00;63.58;99936.16;4989214;28;20046;-79
2022/12/14 03:24:55;;;;;;;21.52;12.45;;;;;;;6.99;63.52;99934.44;4979938;28;20105;-79
2022/12/14 03:27:30;;;;;;;18.60;11.13;;;;;;;6.98;63.74;99932.72;4996353;28;20056;-79
2022/12/14 03:30:00;;;;;;;19.05;11.18;;;;;;;7.00;63.51;99927.34;4996876;28;20042;-80
2022/12/14 03:32:32;;;;;;;20.83;12.05;;;;;;;6.99;63.56;99933.56;4979497;28;20053;-79
2022/12/14 03:35:04;;;;;;;16.92;10.73;;;;;;;6.98;63.57;99937.16;4996285;28;20405;-79
2022/12/14 03:37:38;;;;;;;20.35;11.25;;;;;;;6.97;63.51;99930.16;4996045;28;20042;-79
2022/12/14 03:40:08;;;;;;;;;;;;;;;6.95;63.54;99930.22;4996428;28;20126;-79
2022/12/14 03:42:42;;;;;;;20.85;11.45;;;;;;;6.96;63.28;99925.78;4996717;28;20280;-79
2022/12/14 03:45:20;;;;;;;17.48;10.48;;;;;;;6.95;63.65;99910.78;4996159;28;20049;-78
2022/12/14 03:48:06;;;;;;;18.63;10.63;;;;;;;6.95;63.62;99901.06;4996310;28;20054;-77
2022/12/14 03:50:41;;;;;;;17.65;10.57;;;;;;;6.93;63.67;99902.06;4979580;28;20394;-78
2022/12/14 03:53:14;;;;;;;19.40;11.60;;;;;;;6.92;63.54;99897.69;4978976;28;20050;-78
2022/12/14 03:55:53;;;;;;;19.92;11.00;;;;;;;6.94;63.31;99895.81;4995683;28;20034;-78
2022/12/14 03:58:33;;;;;;;19.88;11.77;;;;;;;6.95;63.37;99900.19;4996038;28;20042;-78
2022/12/14 04:01:08;;;;;;;18.52;11.02;;;;;;;6.95;63.64;99892.22;4996256;28;20073;-78
2022/12/14 04:03:47;;;;;;;18.95;10.90;;;;;;;6.94;63.39;99893.16;4978564;28;20416;-77
2022/12/14 04:06:25;;;;;;;17.98;10.63;;;;;;;6.94;63.44;99894.00;4995895;28;20442;-78
2022/12/14 04:09:02;;;;;;;19.88;11.20;;;;;;;6.94;63.57;99887.84;4996441;28;20043;-78
2022/12/14 04:20:09;;;;;;;19.88;10.80;;;;;;;6.91;63.62;99882.72;4995509;28;20053;-78
2022/12/14 04:22:43;;;;;;;18.40;10.57;;;;;;;6.91;63.60;99893.31;4995743;28;20074;-79
2022/12/14 04:28:07;;;;;;;18.48;10.43;;;;;;;6.89;63.70;99902.22;4995641;28;20042;-79
2022/12/14 04:30:38;;;;;;;19.90;11.60;;;;;;;6.91;63.81;99891.53;4977909;28;20050;-79
2022/12/14 04:35:58;;;;;;;19.85;10.75;;;;;;;6.89;63.89;99883.66;4976745;28;20056;-79
2022/12/14 04:38:33;;;;;;;20.27;11.27;;;;;;;6.91;63.51;99883.56;4988550;28;20109;-79
2022/12/14 04:41:07;;;;;;;18.27;11.13;;;;;;;6.91;63.79;99875.63;4965562;28;20051;-79
2022/12/14 04:43:45;;;;;;;18.38;11.00;;;;;;;6.91;63.75;99875.63;4975580;28;20058;-79
2022/12/14 04:46:20;;;;;;;19.52;11.73;;;;;;;6.91;63.71;99872.13;4975740;28;20077;-79
2022/12/14 04:48:54;;;;;;;18.38;11.00;;;;;;;6.92;63.73;99868.53;4975707;28;20066;-78
2022/12/14 04:51:30;;;;;;;20.52;11.23;;;;;;;6.90;63.76;99865.94;4958314;28;20046;-79
2022/12/14 04:54:04;;;;;;;17.85;10.32;;;;;;;6.89;63.86;99859.78;4976279;28;20053;-79
2022/12/14 04:56:44;;;;;;;17.98;10.18;;;;;;;6.89;64.10;99854.50;4976717;28;20457;-78
2022/12/14 04:59:12;;;;;;;16.83;9.85;;;;;;;6.91;63.92;99851.75;4976405;28;20051;-78
2022/12/14 05:01:49;;;;;;;18.02;10.73;;;;;;;6.90;63.93;99858.00;4976520;28;20043;-78
2022/12/14 05:04:28;;;;;;;18.65;10.07;;;;;;;6.91;64.06;99849.09;4959890;28;20050;-78
2022/12/14 05:07:06;;;;;;;19.67;11.15;;;;;;;6.91;64.07;99835.84;4975982;28;20053;-78
2022/12/14 05:09:40;;;;;;;20.30;10.90;;;;;;;6.91;63.98;99841.16;4959082;28;20046;-78
2022/12/14 05:12:16;;;;;;;18.63;11.32;;;;;;;6.93;63.95;99843.72;4978222;28;20066;-78
2022/12/14 05:14:50;;;;;;;18.10;10.45;;;;;;;6.92;63.85;99847.31;4963094;28;20071;-78
2022/12/14 05:17:18;;;;;;;19.77;11.48;;;;;;;6.92;63.75;99858.78;4980536;28;20481;-78
2022/12/14 05:19:48;;;;;;;18.05;10.20;;;;;;;6.93;64.14;99859.63;4980472;28;20046;-78
2022/12/14 05:22:19;;;;;;;16.92;10.50;;;;;;;6.94;63.99;99859.53;4980187;28;20047;-78
2022/12/14 05:24:47;;;;;;;20.40;11.65;;;;;;;6.94;64.19;99853.38;4980499;28;20047;-78
2022/12/14 05:27:15;;;;;;;18.55;10.73;;;;;;;6.95;63.90;99852.44;4980006;28;20396;-78
2022/12/14 05:29:43;;;;;;;17.02;10.23;;;;;;;6.92;64.05;99845.50;4979877;28;20077;-78
2022/12/14 05:32:12;;;;;;;18.10;10.27;;;;;;;6.94;63.96;99826.88;4979489;28;20043;-78
2022/12/14 05:34:40;;;;;;;17.98;10.55;;;;;;;6.94;63.99;99824.22;4979535;28;20077;-78
2022/12/14 05:37:09;;;;;;;19.88;11.05;;;;;;;6.94;64.08;99824.22;4979700;28;20051;-78
2022/12/14 05:39:47;;;;;;;16.50;9.63;;;;;;;6.93;64.22;99822.50;4979820;28;20066;-79
2022/12/14 05:42:15;;;;;;;17.73;10.20;;;;;;;6.93;64.12;99830.47;4980247;28;20055;-77
2022/12/14 05:44:46;;;;;;;17.25;10.15;;;;;;;6.94;64.18;99832.19;4979362;28;20489;-80
2022/12/14 05:47:18;;;;;;;18.08;9.90;;;;;;;6.93;64.14;99827.81;4979098;28;20457;-78
2022/12/14 05:49:46;;;;;;;16.95;10.18;;;;;;;6.92;64.15;99826.09;4979570;28;20046;-78
2022/12/14 05:52:16;;;;;;;16.55;9.45;;;;;;;6.92;64.12;99836.72;4979883;28;20078;-80
2022/12/14 05:54:44;;;;;;;17.30;10.18;;;;;;;6.90;64.15;99834.13;4962303;28;20141;-78
2022/12/14 05:57:14;;;;;;;16.45;10.82;;;;;;;6.93;64.42;99835.75;4978841;28;20130;-80
2022/12/14 05:59:42;;;;;;;16.63;10.38;;;;;;;6.92;64.20;99826.09;4978752;28;20058;-79
2022/12/14 06:02:10;;;;;;;16.65;10.07;;;;;;;6.93;64.30;99822.50;4961328;28;20050;-78
2022/12/14 06:04:39;;;;;;;17.52;10.50;;;;;;;6.94;64.22;99813.63;4978167;28;20128;-78
2022/12/14 06:07:10;;;;;;;16.80;10.43;;;;;;;6.93;64.38;99806.59;4978392;28;20054;-77
2022/12/14 06:09:38;;;;;;;17.10;9.85;;;;;;;6.94;64.41;99803.00;4978415;28;20074;-79
2022/12/14 06:12:06;;;;;;;15.95;9.65;;;;;;;6.93;64.32;99790.69;4978255;28;20034;-80
2022/12/14 06:14:36;;;;;;;16.20;10.55;;;;;;;6.94;64.29;99787.09;4978191;28;20070;-80
2022/12/14 06:17:04;;;;;;;15.52;9.07;;;;;;;6.91;64.38;99790.78;4977984;28;20047;-79
2022/12/14 06:19:32;;;;;;;17.25;9.57;;;;;;;6.89;64.38;99806.78;4977613;28;20403;-79
2022/12/14 06:22:00;;;;;;;14.82;8.88;;;;;;;6.88;64.52;99794.44;4977339;28;20050;-79
2022/12/14 06:24:28;;;;;;;17.30;9.98;;;;;;;6.86;64.45;99798.97;4959050;28;20043;-79
2022/12/14 06:26:56;;;;;;;15.95;9.32;;;;;;;6.89;64.58;99801.47;4977376;28;20051;-78
2022/12/14 06:29:25;;;;;;;15.73;9.85;;;;;;;6.89;64.61;99809.41;4978361;28;20495;-78
2022/12/14 06:31:54;;;;;;;14.90;8.98;;;;;;;6.89;64.78;99806.78;4977463;28;20138;-78
2022/12/14 06:34:22;;;;;;;15.95;9.57;;;;;;;6.91;64.73;99805.81;4978366;28;20055;-79
2022/12/14 06:36:55;;;;;;;14.50;8.55;;;;;;;6.86;64.59;99787.53;4977405;28;20038;-79
2022/12/14 06:39:24;;;;;;;16.02;9.35;;;;;;;6.90;64.61;99791.72;4977154;28;20039;-79
2022/12/14 06:41:52;;;;;;;14.93;8.57;;;;;;;6.90;64.64;99802.31;4976470;28;20047;-77
2022/12/14 06:44:20;;;;;;;13.93;8.85;;;;;;;6.91;64.78;99792.56;4977300;28;20085;-79
2022/12/14 06:46:48;;;;;;;15.60;8.85;;;;;;;6.91;64.80;99788.13;4976538;28;20054;-78
2022/12/14 06:49:18;;;;;;;15.88;9.30;;;;;;;6.91;64.75;99787.28;4976523;28;20486;-79
2022/12/14 06:51:46;;;;;;;15.98;9.48;;;;;;;6.92;64.83;99794.28;4976928;28;20482;-77
2022/12/14 06:54:16;;;;;;;14.77;8.98;;;;;;;6.92;64.98;99794.28;4995156;28;20042;-78
2022/12/14 06:56:47;;;;;;;15.15;9.30;;;;;;;6.92;64.80;99779.22;4996400;28;20051;-78
2022/12/14 06:59:16;;;;;;;13.35;8.23;;;;;;;6.92;64.87;99776.56;4978709;28;20055;-78
2022/12/14 07:01:45;;;;;;;14.88;9.30;;;;;;;6.92;64.66;99773.94;4996186;28;20134;-80
2022/12/14 07:04:20;;;;;;;15.95;9.38;;;;;;;6.93;64.72;99785.38;4991606;28;20047;-78
2022/12/14 07:06:48;;;;;;;15.02;8.73;;;;;;;6.93;64.81;99780.94;4968590;28;20497;-79
2022/12/14 07:09:16;;;;;;;15.20;9.02;;;;;;;6.93;64.84;99774.78;4995747;28;20440;-79
2022/12/14 07:11:45;;;;;;;14.50;8.93;;;;;;;6.93;64.88;99780.94;4971970;28;21778;-79
2022/12/14 07:14:16;;;;;;;14.23;8.77;;;;;;;6.93;64.81;99780.94;4985574;28;20050;-78
2022/12/14 07:16:45;;;;;;;15.77;8.77;;;;;;;6.93;64.89;99775.63;4985917;28;20042;-77
2022/12/14 07:19:16;;;;;;;14.82;8.77;;;;;;;6.93;64.87;99750.91;4981777;28;20035;-78
2022/12/14 07:21:46;;;;;;;15.45;8.95;;;;;;;6.92;64.86;99746.56;4969468;28;20074;-78
2022/12/14 07:24:14;;;;;;;14.13;8.70;;;;;;;6.93;64.79;99753.56;4975400;28;20046;-78
2022/12/14 07:26:43;;;;;;;14.38;8.35;;;;;;;6.93;64.81;99750.91;4981249;28;20051;-78
2022/12/14 07:29:13;;;;;;;13.82;8.45;;;;;;;6.95;64.66;99754.34;4978871;28;20046;-78
2022/12/14 07:31:41;;;;;;;15.23;8.60;;;;;;;6.94;64.78;99765.88;4985695;28;20066;-78
2022/12/14 07:34:12;;;;;;;14.57;8.57;;;;;;;6.95;64.77;99759.63;4966264;28;20508;-79
2022/12/14 07:36:42;;;;;;;15.00;8.50;;;;;;;6.95;64.76;99765.84;4985000;28;20519;-78
2022/12/14 07:39:13;;;;;;;14.73;8.30;;;;;;;6.95;64.78;99757.00;4978604;28;20051;-78
2022/12/14 07:41:41;;;;;;;14.57;8.82;;;;;;;6.96;64.80;99750.78;4958795;28;20558;-78
2022/12/14 07:44:11;;;;;;;13.77;7.82;;;;;;;6.95;64.93;99770.25;4975681;28;20112;-78
2022/12/14 07:46:39;;;;;;;14.32;8.70;;;;;;;6.95;64.92;99772.91;4965297;28;20046;-79
2022/12/14 07:49:08;;;;;;;14.32;8.57;;;;;;;6.95;65.03;99776.44;4977284;28;20039;-79
2022/12/14 07:51:40;;;;;;;14.23;8.07;;;;;;;6.97;64.97;99786.97;4975423;28;20046;-79
2022/12/14 07:54:08;;;;;;;13.88;8.75;;;;;;;6.97;65.05;99787.81;4975811;28;20046;-78
2022/12/14 07:56:40;;;;;;;15.50;9.13;;;;;;;6.97;64.95;99801.06;4976101;28;20054;-79
2022/12/14 07:59:13;;;;;;;12.77;8.18;;;;;;;6.99;64.98;99796.53;4975745;28;20042;-78
2022/12/14 08:01:44;;;;;;;;;;;;;;;6.98;65.13;99786.88;4961775;28;20047;-80
2022/12/14 08:04:15;;;;;;;15.82;8.07;;;;;;;6.99;64.97;99791.22;4958700;28;20356;-88
2022/12/14 08:06:46;;;;;;;13.25;8.23;;;;;;;6.98;64.93;99788.66;4984200;28;20104;-81
2022/12/14 08:09:15;;;;;;;14.43;8.48;;;;;;;6.99;65.01;99787.72;4963696;28;20051;-79
2022/12/14 08:11:45;;;;;;;15.13;8.82;;;;;;;6.99;65.04;99790.38;4975511;28;20125;-78
2022/12/14 08:14:16;;;;;;;14.05;8.60;;;;;;;7.00;65.00;99787.63;4975239;28;20051;-79
2022/12/14 08:16:45;;;;;;;15.88;8.93;;;;;;;7.00;65.10;99792.09;4975069;28;20047;-79
2022/12/14 08:19:14;;;;;;;15.63;8.40;;;;;;;7.02;65.01;99790.22;4975265;28;20074;-79
2022/12/14 08:21:42;;;;;;;15.05;8.93;;;;;;;7.01;64.89;99784.06;4958057;28;20050;-79
2022/12/14 08:24:11;;;;;;;17.95;9.05;;;;;;;7.02;65.05;99780.47;4975272;28;20070;-78
2022/12/14 08:26:40;;;;;;;17.13;9.20;;;;;;;7.03;65.00;99776.00;4975348;28;20074;-79
2022/12/14 08:29:13;;;;;;;16.27;8.00;;;;;;;7.03;65.06;99773.34;4975655;28;20093;-78
2022/12/14 08:31:41;;;;;;;16.05;8.43;;;;;;;7.04;64.92;99781.22;4975277;28;20050;-78
2022/12/14 08:34:10;;;;;;;15.35;8.73;;;;;;;7.05;64.89;99790.06;4974156;28;20061;-78
2022/12/14 08:36:38;;;;;;;18.60;8.35;;;;;;;7.04;64.90;99783.03;4974293;28;20445;-81
2022/12/14 08:39:09;;;;;;;15.90;8.18;;;;;;;7.04;65.16;99789.19;4974267;28;20478;-78
2022/12/14 08:41:37;;;;;;;17.08;8.55;;;;;;;7.04;64.96;99793.63;4957297;28;20566;-78
2022/12/14 08:44:06;;;;;;;16.25;8.88;;;;;;;7.05;65.00;99780.31;4957399;28;20517;-79
2022/12/14 08:46:37;;;;;;;17.85;8.93;;;;;;;7.06;65.21;99775.88;4956425;28;20085;-79
2022/12/14 08:49:06;;;;;;;17.67;9.80;;;;;;;7.06;65.19;99767.91;4974550;28;20501;-78
2022/12/14 08:51:37;;;;;;;16.70;9.13;;;;;;;7.02;65.33;99763.69;4956985;28;20125;-79
2022/12/14 08:54:05;;;;;;;18.23;8.90;;;;;;;7.04;65.17;99753.84;4973871;28;20498;-80
2022/12/14 08:56:33;;;;;;;18.65;8.70;;;;;;;7.06;65.19;99747.56;4973624;28;20051;-78
2022/12/14 08:59:02;;;;;;;17.27;8.70;;;;;;;7.05;65.34;99732.59;4974260;28;20109;-78
2022/12/14 09:01:31;;;;;;;17.38;8.25;;;;;;;7.05;65.27;99726.41;4956793;28;20057;-78
2022/12/14 09:04:04;;;;;;;16.73;8.50;;;;;;;7.08;65.07;99727.09;4974481;28;20053;-78
2022/12/14 09:06:36;;;;;;;16.40;8.57;;;;;;;7.09;64.96;99722.66;4974224;28;20047;-80
2022/12/14 09:09:05;;;;;;;16.13;8.38;;;;;;;7.08;65.08;99729.75;4973796;28;20054;-79
2022/12/14 09:11:42;;;;;;;14.48;8.07;;;;;;;7.10;65.03;99745.56;4973739;28;20047;-80
2022/12/14 09:14:10;;;;;;;15.48;8.10;;;;;;;7.10;64.84;99730.53;4973819;28;20552;-79
2022/12/14 09:16:38;;;;;;;16.83;8.70;;;;;;;7.11;65.02;99732.22;4974625;28;20047;-80
2022/12/14 09:19:08;;;;;;;18.83;8.98;;;;;;;7.10;65.03;99727.00;4974244;28;20078;-78
2022/12/14 09:21:37;;;;;;;17.90;8.52;;;;;;;7.11;65.02;99731.38;4974279;28;20057;-78
2022/12/14 09:24:05;;;;;;;17.83;8.57;;;;;;;7.12;64.89;99741.03;4973711;28;20053;-78
2022/12/14 09:26:34;;;;;;;14.73;7.78;;;;;;;7.13;64.92;99734.78;4957290;28;20470;-78
2022/12/14 09:29:02;;;;;;;15.52;8.45;;;;;;;7.14;65.02;99731.19;4974292;28;20126;-79
2022/12/14 09:31:30;;;;;;;15.57;8.05;;;;;;;7.14;64.95;99734.72;4973670;28;20545;-79
2022/12/14 09:33:58;;;;;;;14.65;7.55;;;;;;;7.13;65.15;99735.66;4904980;28;1507377;-79
2022/12/14 09:36:28;;;;;;;15.25;8.18;;;;;;;7.13;64.97;99725.03;4958297;28;20043;-80
2022/12/14 09:38:58;;;;;;;15.48;7.65;;;;;;;7.13;65.06;99725.03;4974382;28;20441;-79
2022/12/14 09:41:38;;;;;;;16.42;8.63;;;;;;;7.14;65.04;99720.59;4974564;28;20047;-79
2022/12/14 09:44:15;;;;;;;17.00;7.80;;;;;;;7.14;65.01;99704.69;4974507;28;20093;-79
2022/12/14 09:46:56;;;;;;;15.43;8.00;;;;;;;7.14;64.89;99694.06;4974530;28;20047;-79
2022/12/14 09:49:29;;;;;;;14.77;7.95;;;;;;;7.11;64.85;99680.97;4974941;28;20055;-78
2022/12/14 09:52:01;;;;;;;17.20;7.65;;;;;;;7.15;64.81;99679.91;4974485;28;20074;-80
2022/12/14 09:54:33;;;;;;;13.10;7.72;;;;;;;7.15;65.03;99678.09;4974088;28;20047;-78
2022/12/14 09:57:04;;;;;;;13.95;7.78;;;;;;;7.15;64.92;99674.59;4974643;28;20050;-77
2022/12/14 09:59:34;;;;;;;15.32;8.02;;;;;;;7.14;64.97;99672.84;4978136;28;20051;-78
2022/12/14 10:02:18;;;;;;;17.13;8.18;;;;;;;7.16;65.02;99671.00;4978854;28;20070;-78
2022/12/14 10:05:12;;;;;;;14.23;7.60;;;;;;;7.16;65.06;99661.22;4978790;28;20386;-79
2022/12/14 10:07:51;;;;;;;20.42;8.80;;;;;;;7.16;65.05;99666.53;4978575;28;20097;-79
2022/12/14 10:10:25;;;;;;;14.77;8.30;;;;;;;7.15;65.07;99669.28;4978109;28;20050;-79
2022/12/14 10:13:06;;;;;;;16.25;8.07;;;;;;;7.18;64.88;99677.06;4960481;28;20071;-78
2022/12/14 10:15:40;;;;;;;15.05;8.43;;;;;;;7.19;64.86;99673.47;4977472;28;20039;-79
2022/12/14 10:18:33;;;;;;;15.13;8.02;;;;;;;7.19;64.91;99684.06;4960422;28;20043;-79
2022/12/14 10:21:24;;;;;;;15.45;8.20;;;;;;;7.19;64.77;99684.06;4977540;28;20482;-79
2022/12/14 10:23:58;;;;;;;15.70;8.05;;;;;;;7.19;64.95;99681.41;4977673;28;20042;-80
2022/12/14 10:26:32;;;;;;;15.50;7.95;;;;;;;7.20;65.13;99672.53;4970673;28;20066;-79
2022/12/14 10:29:07;;;;;;;15.90;8.43;;;;;;;7.20;64.90;99666.34;4977511;28;20053;-79
2022/12/14 10:31:44;;;;;;;16.85;8.23;;;;;;;7.20;64.80;99656.59;4977497;28;20131;-79
2022/12/14 10:34:18;;;;;;;14.10;7.80;;;;;;;7.22;64.70;99649.41;4960277;28;20419;-78
2022/12/14 10:36:54;;;;;;;15.25;8.63;;;;;;;7.21;64.91;99634.44;4977375;28;20047;-78
2022/12/14 10:39:33;;;;;;;18.00;8.10;;;;;;;7.20;64.93;99627.44;4977123;28;20414;-78
2022/12/14 10:42:11;;;;;;;13.85;7.65;;;;;;;7.20;64.98;99619.47;4977467;28;20061;-80
2022/12/14 10:44:47;;;;;;;14.48;7.60;;;;;;;7.21;65.00;99615.88;4977450;28;20043;-80
2022/12/14 10:47:27;;;;;;;16.67;8.13;;;;;;;7.23;64.94;99613.13;4976769;28;20046;-78
2022/12/14 10:50:01;;;;;;;16.25;7.72;;;;;;;7.22;64.89;99606.97;4976862;28;20050;-80
2022/12/14 10:52:36;;;;;;;15.85;7.75;;;;;;;7.23;64.95;99606.03;4976764;28;20537;-78
2022/12/14 10:55:14;;;;;;;13.77;7.57;;;;;;;7.24;65.06;99614.84;4977238;28;20046;-80
2022/12/14 10:57:42;;;;;;;13.25;6.93;;;;;;;7.24;65.02;99614.84;4959327;28;20051;-80
2022/12/14 11:00:13;;;;;;;15.13;8.05;;;;;;;7.26;64.92;99602.38;4959253;28;20106;-78
2022/12/14 11:02:54;;;;;;;15.10;7.13;;;;;;;7.26;65.02;99607.66;4977012;28;20066;-77
2022/12/14 11:05:29;;;;;;;18.08;8.65;;;;;;;7.26;65.13;99608.53;4976441;28;20141;-78
2022/12/14 11:08:05;;;;;;;15.38;8.30;;;;;;;7.26;65.01;99605.88;4976748;28;20482;-78
2022/12/14 11:10:38;;;;;;;14.55;7.63;;;;;;;7.27;65.03;99598.75;4975545;28;20073;-80
2022/12/14 11:13:15;;;;;;;15.48;8.13;;;;;;;7.26;65.00;99612.97;4976799;28;20146;-78
2022/12/14 11:15:45;;;;;;;13.60;7.60;;;;;;;7.26;65.15;99602.38;4976996;28;20429;-80
2022/12/14 11:18:27;;;;;;;14.85;7.50;;;;;;;7.25;65.22;99595.34;4977879;28;20074;-78
2022/12/14 11:20:58;;;;;;;13.60;7.53;;;;;;;7.25;65.43;99598.00;4960525;28;20101;-79
2022/12/14 11:23:28;;;;;;;16.23;8.50;;;;;;;7.27;65.35;99607.56;4975947;28;20070;-77
2022/12/14 11:26:01;;;;;;;14.63;7.88;;;;;;;7.25;65.30;99588.25;4976513;28;20050;-79
2022/12/14 11:28:39;;;;;;;12.63;6.75;;;;;;;7.25;65.29;99584.75;4976538;28;20051;-79
2022/12/14 11:31:10;;;;;;;;;;;;;;;7.26;65.45;99579.34;4976443;28;20050;-79
2022/12/14 11:33:44;;;;;;;13.18;7.10;;;;;;;7.27;65.47;99577.53;4976207;28;19922;-78
2022/12/14 11:36:24;;;;;;;14.18;7.40;;;;;;;7.27;65.21;99567.78;4976092;28;20054;-78
2022/12/14 11:38:56;;;;;;;12.23;7.55;;;;;;;7.28;65.11;99569.50;4975973;28;20047;-78
2022/12/14 11:41:28;;;;;;;13.40;7.85;;;;;;;7.28;65.26;99568.66;4975869;28;20122;-79
2022/12/14 11:44:02;;;;;;;13.43;7.90;;;;;;;7.27;65.24;99562.47;4959365;28;20047;-78
2022/12/14 11:46:42;;;;;;;14.60;7.63;;;;;;;7.27;65.18;99541.25;4976213;28;20449;-79
2022/12/14 11:49:25;;;;;;;12.77;7.43;;;;;;;7.27;65.13;99549.22;4976479;28;20052;-79
2022/12/14 11:51:59;;;;;;;15.27;7.90;;;;;;;7.28;65.15;99542.97;4976314;28;20466;-79
2022/12/14 11:54:30;;;;;;;14.60;7.90;;;;;;;7.27;65.36;99538.59;4976187;28;20073;-79
2022/12/14 11:57:03;;;;;;;13.15;7.50;;;;;;;7.28;65.25;99537.66;4975633;28;20047;-79
2022/12/14 11:59:36;;;;;;;;;;;;;;;7.28;65.39;99529.69;4976315;28;20261;-78
2022/12/14 12:02:28;;;;;;;13.02;6.93;;;;;;;7.29;65.20;99528.75;4958929;28;20433;-78
2022/12/14 12:05:02;;;;;;;12.93;7.18;;;;;;;7.30;65.22;99530.47;4975751;28;20082;-78
2022/12/14 12:07:33;;;;;;;12.60;7.18;;;;;;;7.31;64.97;99526.88;4975633;28;20054;-78